createdAt,value
2018-05-15T00:00:47.432Z,45.37
2018-05-15T00:01:47.602Z,45.76
2018-05-15T00:02:47.793Z,46.14
2018-05-15T00:03:47.968Z,46.24
2018-05-15T00:04:48.156Z,46.91
2018-05-15T00:05:48.332Z,46.62
2018-05-15T00:06:48.516Z,46.81
2018-05-15T00:07:48.705Z,46.24
2018-05-15T00:08:48.895Z,46.53
2018-05-15T00:09:49.069Z,46.05
2018-05-15T00:10:49.251Z,46.22
2018-05-15T00:11:49.441Z,46.89
2018-05-15T00:12:49.615Z,46.50
2018-05-15T00:13:49.792Z,46.98
2018-05-15T00:14:49.974Z,46.79
2018-05-15T00:15:50.158Z,46.89
2018-05-15T00:16:50.347Z,47.08
2018-05-15T00:17:50.551Z,47.08
2018-05-15T00:18:50.731Z,47.27
2018-05-15T00:19:50.904Z,47.85
2018-05-15T00:20:51.085Z,47.56
2018-05-15T00:21:51.334Z,47.75
2018-05-15T00:22:51.445Z,47.75
2018-05-15T00:23:51.627Z,47.37
2018-05-15T00:24:51.810Z,47.66
2018-05-15T00:25:51.989Z,47.94
2018-05-15T00:26:52.176Z,48.52
2018-05-15T00:27:52.353Z,48.04
2018-05-15T00:28:52.529Z,48.90
2018-05-15T00:29:52.716Z,48.13
2018-05-15T00:30:52.895Z,48.04
2018-05-15T00:31:53.115Z,48.43
2018-05-15T00:32:53.263Z,48.90
2018-05-15T00:33:53.445Z,48.61
2018-05-15T00:34:53.621Z,48.43
2018-05-15T00:35:53.791Z,49.07
2018-05-15T00:36:53.977Z,49.45
2018-05-15T00:37:54.150Z,49.65
2018-05-15T00:38:54.328Z,49.45
2018-05-15T00:39:54.508Z,49.74
2018-05-15T00:40:54.689Z,49.55
2018-05-15T00:41:54.859Z,49.36
2018-05-15T00:42:55.043Z,50.12
2018-05-15T00:43:55.229Z,50.12
2018-05-15T00:44:55.406Z,49.93
2018-05-15T00:45:55.588Z,49.65
2018-05-15T00:46:55.766Z,49.84
2018-05-15T00:47:55.948Z,49.93
2018-05-15T00:48:56.133Z,49.84
2018-05-15T00:49:56.309Z,50.03
2018-05-15T00:50:56.497Z,49.74
2018-05-15T00:51:56.674Z,49.84
2018-05-15T00:52:56.851Z,49.55
2018-05-15T00:53:57.029Z,49.93
2018-05-15T00:54:57.215Z,49.16
2018-05-15T00:55:57.393Z,49.16
2018-05-15T00:56:57.577Z,50.03
2018-05-15T00:57:57.754Z,49.84
2018-05-15T00:58:57.940Z,49.84
2018-05-15T00:59:58.124Z,49.93
2018-05-15T01:00:58.308Z,49.84
2018-05-15T01:01:58.498Z,50.03
2018-05-15T01:02:58.674Z,50.51
2018-05-15T01:03:58.849Z,50.22
2018-05-15T01:04:59.031Z,50.32
2018-05-15T01:05:59.215Z,50.51
2018-05-15T01:06:59.395Z,50.51
2018-05-15T01:07:59.578Z,50.22
2018-05-15T01:08:59.750Z,50.32
2018-05-15T01:09:59.930Z,50.22
2018-05-15T01:11:00.113Z,49.93
2018-05-15T01:12:00.295Z,49.74
2018-05-15T01:13:00.469Z,49.84
2018-05-15T01:14:00.654Z,49.93
2018-05-15T01:15:00.831Z,49.84
2018-05-15T01:16:01.008Z,50.41
2018-05-15T01:17:01.195Z,50.03
2018-05-15T01:18:01.377Z,50.41
2018-05-15T01:19:01.558Z,50.32
2018-05-15T01:20:01.738Z,50.22
2018-05-15T01:21:01.915Z,50.60
2018-05-15T01:22:02.096Z,50.32
2018-05-15T01:23:02.283Z,50.60
2018-05-15T01:24:02.462Z,50.51
2018-05-15T01:25:02.651Z,50.60
2018-05-15T01:26:02.835Z,50.32
2018-05-15T01:27:03.015Z,50.60
2018-05-15T01:28:03.198Z,49.74
2018-05-15T01:29:03.380Z,50.32
2018-05-15T01:30:03.563Z,50.51
2018-05-15T01:31:03.759Z,50.41
2018-05-15T01:32:03.919Z,50.03
2018-05-15T01:33:04.097Z,49.93
2018-05-15T01:34:04.279Z,50.03
2018-05-15T01:35:04.465Z,49.65
2018-05-15T01:36:04.639Z,50.03
2018-05-15T01:37:04.815Z,50.03
2018-05-15T01:38:04.994Z,49.84
2018-05-15T01:39:05.178Z,49.74
2018-05-15T01:40:05.358Z,50.03
2018-05-15T01:41:05.536Z,49.93
2018-05-15T01:42:05.721Z,50.32
2018-05-15T01:43:05.909Z,49.93
2018-05-15T01:44:06.084Z,50.51
2018-05-15T01:45:06.260Z,50.32
2018-05-15T01:46:06.447Z,50.41
2018-05-15T01:47:06.627Z,50.60
2018-05-15T01:48:06.819Z,50.51
2018-05-15T01:49:07.004Z,50.60
2018-05-15T01:50:07.183Z,50.41
2018-05-15T01:51:07.366Z,50.22
2018-05-15T01:52:07.547Z,50.32
2018-05-15T01:53:07.731Z,50.41
2018-05-15T01:54:07.914Z,50.32
2018-05-15T01:55:08.097Z,50.22
2018-05-15T01:56:08.276Z,50.51
2018-05-15T01:57:08.456Z,50.51
2018-05-15T01:58:08.634Z,49.93
2018-05-15T01:59:08.808Z,50.51
2018-05-15T02:00:08.993Z,50.32
2018-05-15T02:01:09.169Z,50.32
2018-05-15T02:02:09.373Z,50.89
2018-05-15T02:03:09.567Z,51.46
2018-05-15T02:04:09.758Z,51.73
2018-05-15T02:05:09.942Z,51.54
2018-05-15T02:06:10.122Z,51.54
2018-05-15T02:07:10.306Z,51.44
2018-05-15T02:08:10.494Z,51.15
2018-05-15T02:09:10.678Z,50.96
2018-05-15T02:10:10.855Z,51.06
2018-05-15T02:11:11.036Z,51.06
2018-05-15T02:12:11.227Z,50.87
2018-05-15T02:13:11.404Z,51.06
2018-05-15T02:14:11.577Z,50.87
2018-05-15T02:15:11.779Z,50.79
2018-05-15T02:16:11.983Z,50.79
2018-05-15T02:17:12.148Z,50.60
2018-05-15T02:18:12.332Z,50.99
2018-05-15T02:19:12.509Z,50.99
2018-05-15T02:20:12.696Z,51.85
2018-05-15T02:21:12.881Z,51.92
2018-05-15T02:22:13.056Z,51.63
2018-05-15T02:23:13.236Z,51.63
2018-05-15T02:24:13.425Z,51.63
2018-05-15T02:25:13.609Z,51.54
2018-05-15T02:26:13.786Z,51.92
2018-05-15T02:27:13.973Z,51.82
2018-05-15T02:28:14.156Z,51.44
2018-05-15T02:29:14.330Z,52.01
2018-05-15T02:30:14.531Z,52.01
2018-05-15T02:31:14.710Z,52.40
2018-05-15T02:32:14.890Z,52.11
2018-05-15T02:33:15.069Z,52.30
2018-05-15T02:34:15.247Z,52.30
2018-05-15T02:35:23.492Z,52.40
2018-05-15T02:36:15.666Z,52.40
2018-05-15T02:37:15.846Z,52.40
2018-05-15T02:38:16.022Z,52.97
2018-05-15T02:39:16.195Z,52.78
2018-05-15T02:40:16.379Z,52.59
2018-05-15T02:41:16.564Z,52.69
2018-05-15T02:42:16.737Z,53.07
2018-05-15T02:43:16.924Z,52.97
2018-05-15T02:44:17.103Z,52.59
2018-05-15T02:45:17.287Z,52.50
2018-05-15T02:46:17.464Z,53.16
2018-05-15T02:47:17.642Z,53.16
2018-05-15T02:48:17.822Z,53.64
2018-05-15T02:49:18.003Z,53.33
2018-05-15T02:50:18.188Z,53.04
2018-05-15T02:51:18.369Z,53.14
2018-05-15T02:52:18.543Z,53.91
2018-05-15T02:53:18.729Z,54.00
2018-05-15T02:54:18.909Z,54.48
2018-05-15T02:55:19.085Z,54.77
2018-05-15T02:56:19.264Z,54.19
2018-05-15T02:57:19.447Z,54.19
2018-05-15T02:58:19.623Z,54.38
2018-05-15T02:59:19.794Z,54.67
2018-05-15T03:00:19.981Z,54.00
2018-05-15T03:01:20.158Z,54.10
2018-05-15T03:02:20.334Z,54.00
2018-05-15T03:03:20.520Z,55.34
2018-05-15T03:04:20.695Z,56.10
2018-05-15T03:05:20.877Z,56.30
2018-05-15T03:06:21.057Z,56.59
2018-05-15T03:07:21.231Z,56.97
2018-05-15T03:08:21.408Z,57.26
2018-05-15T03:09:21.586Z,57.51
2018-05-15T03:10:21.788Z,57.70
2018-05-15T03:11:21.950Z,58.86
2018-05-15T03:12:22.132Z,58.56
2018-05-15T03:13:22.318Z,59.14
2018-05-15T03:14:22.501Z,58.95
2018-05-15T03:15:22.682Z,59.05
2018-05-15T03:16:22.863Z,59.14
2018-05-15T03:17:23.052Z,59.62
2018-05-15T03:18:23.236Z,59.69
2018-05-15T03:19:23.420Z,60.55
2018-05-15T03:20:23.596Z,60.26
2018-05-15T03:21:23.785Z,59.59
2018-05-15T03:22:23.959Z,60.55
2018-05-15T03:23:24.148Z,60.55
2018-05-15T03:24:24.318Z,61.12
2018-05-15T03:25:24.494Z,60.93
2018-05-15T03:26:24.673Z,60.64
2018-05-15T03:27:24.843Z,60.93
2018-05-15T03:28:25.023Z,60.55
2018-05-15T03:29:25.213Z,60.45
2018-05-15T03:30:25.405Z,60.45
2018-05-15T03:31:25.595Z,60.83
2018-05-15T03:32:25.773Z,61.51
2018-05-15T03:33:25.958Z,61.98
2018-05-15T03:34:26.151Z,61.76
2018-05-15T03:35:26.343Z,61.76
2018-05-15T03:36:26.517Z,61.69
2018-05-15T03:37:26.696Z,62.24
2018-05-15T03:38:26.882Z,62.04
2018-05-15T03:39:27.066Z,62.14
2018-05-15T03:40:27.272Z,62.52
2018-05-15T03:41:27.449Z,62.52
2018-05-15T03:42:27.633Z,62.81
2018-05-15T03:43:27.821Z,62.62
2018-05-15T03:44:28.002Z,62.33
2018-05-15T03:45:28.179Z,61.09
2018-05-15T03:46:28.361Z,61.28
2018-05-15T03:47:28.544Z,60.99
2018-05-15T03:48:28.720Z,60.55
2018-05-15T03:49:28.906Z,61.57
2018-05-15T03:50:29.081Z,62.08
2018-05-15T03:51:29.261Z,62.46
2018-05-15T03:52:33.658Z,63.23
2018-05-15T03:53:32.619Z,62.52
2018-05-15T03:54:32.853Z,62.17
2018-05-15T03:55:34.221Z,60.74
2018-05-15T03:56:33.152Z,60.33
2018-05-15T03:57:34.194Z,59.40
2018-05-15T03:58:34.104Z,59.11
2018-05-15T03:59:34.541Z,59.30
2018-05-15T04:00:33.837Z,59.40
2018-05-15T04:01:34.374Z,58.92
2018-05-15T04:02:35.361Z,58.92
2018-05-15T04:03:35.745Z,58.73
2018-05-15T04:04:34.959Z,58.34
2018-05-15T04:05:36.526Z,58.09
2018-05-15T04:06:37.305Z,57.70
2018-05-15T04:07:36.109Z,58.18
2018-05-15T04:08:35.805Z,57.90
2018-05-15T04:09:37.885Z,57.61
2018-05-15T04:10:36.717Z,57.80
2018-05-15T04:11:34.220Z,57.70
2018-05-15T04:12:36.609Z,57.42
2018-05-15T04:13:33.653Z,57.04
2018-05-15T04:14:34.477Z,56.56
2018-05-15T04:15:34.883Z,57.13
2018-05-15T04:16:34.639Z,56.94
2018-05-15T04:17:33.537Z,57.04
2018-05-15T04:18:33.810Z,57.32
2018-05-15T04:19:33.676Z,56.46
2018-05-15T04:20:33.889Z,56.30
2018-05-15T04:21:34.067Z,56.39
2018-05-15T04:22:36.094Z,57.13
2018-05-15T04:23:34.399Z,56.56
2018-05-15T04:24:34.590Z,56.30
2018-05-15T04:25:34.776Z,56.30
2018-05-15T04:26:34.956Z,56.39
2018-05-15T04:27:35.138Z,56.30
2018-05-15T04:28:35.322Z,55.91
2018-05-15T04:29:35.507Z,56.39
2018-05-15T04:30:35.688Z,55.63
2018-05-15T04:31:39.602Z,55.91
2018-05-15T04:32:37.187Z,56.04
2018-05-15T04:33:38.453Z,56.20
2018-05-15T04:34:38.161Z,55.85
2018-05-15T04:35:38.147Z,56.04
2018-05-15T04:36:39.153Z,55.94
2018-05-15T04:37:39.454Z,56.10
2018-05-15T04:38:38.736Z,55.75
2018-05-15T04:39:39.815Z,55.46
2018-05-15T04:40:40.437Z,55.46
2018-05-15T04:41:38.190Z,56.23
2018-05-15T04:42:38.418Z,56.13
2018-05-15T04:43:38.409Z,56.04
2018-05-15T04:44:38.487Z,56.13
2018-05-15T04:45:45.844Z,56.23
2018-05-15T04:46:48.343Z,55.94
2018-05-15T04:47:45.965Z,55.65
2018-05-15T04:48:38.766Z,55.46
2018-05-15T04:49:41.677Z,55.75
2018-05-15T04:50:50.854Z,55.36
2018-05-15T04:51:48.853Z,55.75
2018-05-15T04:52:49.402Z,55.85
2018-05-15T04:53:41.897Z,55.36
2018-05-15T04:54:41.568Z,55.36
2018-05-15T04:55:42.491Z,56.04
2018-05-15T04:56:42.263Z,55.36
2018-05-15T04:57:41.653Z,55.36
2018-05-15T04:58:44.043Z,55.36
2018-05-15T04:59:42.812Z,55.65
2018-05-15T05:00:42.021Z,55.27
2018-05-15T05:01:42.408Z,55.18
2018-05-15T05:02:42.159Z,54.41
2018-05-15T05:03:41.340Z,54.82
2018-05-15T05:04:41.563Z,55.30
2018-05-15T05:05:41.748Z,54.79
2018-05-15T05:06:41.950Z,54.44
2018-05-15T05:07:42.120Z,54.24
2018-05-15T05:08:44.842Z,54.24
2018-05-15T05:09:42.693Z,54.34
2018-05-15T05:10:42.564Z,54.63
2018-05-15T05:11:42.772Z,54.44
2018-05-15T05:12:42.936Z,54.44
2018-05-15T05:13:43.115Z,54.37
2018-05-15T05:14:43.329Z,54.46
2018-05-15T05:15:43.516Z,54.56
2018-05-15T05:16:43.694Z,54.24
2018-05-15T05:17:43.880Z,54.08
2018-05-15T05:18:44.065Z,53.89
2018-05-15T05:19:44.242Z,53.50
2018-05-15T05:20:46.928Z,54.08
2018-05-15T05:21:44.576Z,54.08
2018-05-15T05:22:44.752Z,53.31
2018-05-15T05:23:44.942Z,53.03
2018-05-15T05:24:45.120Z,52.74
2018-05-15T05:25:45.323Z,53.22
2018-05-15T05:26:45.515Z,52.95
2018-05-15T05:27:45.708Z,52.38
2018-05-15T05:28:48.401Z,52.48
2018-05-15T05:29:46.008Z,52.57
2018-05-15T05:30:46.210Z,52.40
2018-05-15T05:31:46.371Z,52.31
2018-05-15T05:32:46.569Z,51.64
2018-05-15T05:33:46.763Z,51.45
2018-05-15T05:34:46.934Z,51.16
2018-05-15T05:35:47.112Z,51.16
2018-05-15T05:36:47.316Z,51.64
2018-05-15T05:37:47.647Z,50.87
2018-05-15T05:38:47.653Z,50.61
2018-05-15T05:39:47.847Z,50.32
2018-05-15T05:40:48.029Z,50.03
2018-05-15T05:41:48.207Z,49.93
2018-05-15T05:42:48.382Z,49.55
2018-05-15T05:43:48.568Z,49.93
2018-05-15T05:44:48.766Z,50.03
2018-05-15T05:45:48.943Z,50.03
2018-05-15T05:46:49.125Z,49.65
2018-05-15T05:47:49.313Z,49.55
2018-05-15T05:48:49.511Z,49.74
2018-05-15T05:49:49.685Z,49.65
2018-05-15T05:50:49.866Z,49.55
2018-05-15T05:51:50.055Z,49.17
2018-05-15T05:52:50.333Z,48.90
2018-05-15T05:53:50.394Z,49.74
2018-05-15T05:54:50.574Z,50.03
2018-05-15T05:55:50.763Z,50.13
2018-05-15T05:56:50.944Z,49.17
2018-05-15T05:57:51.124Z,49.84
2018-05-15T05:58:51.309Z,49.55
2018-05-15T05:59:51.497Z,50.03
2018-05-15T06:00:51.671Z,49.55
2018-05-15T06:01:51.853Z,49.74
2018-05-15T06:02:52.035Z,50.32
2018-05-15T06:03:52.220Z,49.87
2018-05-15T06:04:52.404Z,48.90
2018-05-15T06:05:52.591Z,48.04
2018-05-15T06:06:52.770Z,47.75
2018-05-15T06:07:52.959Z,48.52
2018-05-15T06:08:53.141Z,49.02
2018-05-15T06:09:53.326Z,47.80
2018-05-15T06:10:53.513Z,46.74
2018-05-15T06:11:53.694Z,47.31
2018-05-15T06:12:53.878Z,46.95
2018-05-15T06:13:54.064Z,45.42
2018-05-15T06:14:54.248Z,44.67
2018-05-15T06:15:54.438Z,45.25
2018-05-15T06:16:54.621Z,44.55
2018-05-15T06:17:54.805Z,44.28
2018-05-15T06:18:54.993Z,44.48
2018-05-15T06:19:55.175Z,43.90
2018-05-15T06:20:55.388Z,45.05
2018-05-15T06:21:55.538Z,44.84
2018-05-15T06:22:55.734Z,44.84
2018-05-15T06:23:55.918Z,46.06
2018-05-15T06:24:56.098Z,46.16
2018-05-15T06:25:56.283Z,46.26
2018-05-15T06:26:56.469Z,45.10
2018-05-15T06:27:56.653Z,45.49
2018-05-15T06:28:56.843Z,46.16
2018-05-15T06:29:57.025Z,46.16
2018-05-15T06:30:57.221Z,47.03
2018-05-15T06:31:57.407Z,46.84
2018-05-15T06:32:57.584Z,47.22
2018-05-15T06:33:57.772Z,46.93
2018-05-15T06:34:57.962Z,46.86
2018-05-15T06:35:58.145Z,47.03
2018-05-15T06:36:58.331Z,46.47
2018-05-15T06:37:58.528Z,46.19
2018-05-15T06:38:58.720Z,46.57
2018-05-15T06:39:58.906Z,45.42
2018-05-15T06:40:59.090Z,45.03
2018-05-15T06:41:59.271Z,45.22
2018-05-15T06:42:59.456Z,44.96
2018-05-15T06:43:59.643Z,44.76
2018-05-15T06:44:59.825Z,44.40
2018-05-15T06:46:00.015Z,44.79
2018-05-15T06:47:00.208Z,44.04
2018-05-15T06:48:00.391Z,43.67
2018-05-15T06:49:00.574Z,42.80
2018-05-15T06:50:00.767Z,41.86
2018-05-15T06:51:00.947Z,41.20
2018-05-15T06:52:01.139Z,40.19
2018-05-15T06:53:01.323Z,38.10
2018-05-15T06:54:01.515Z,36.80
2018-05-15T06:55:01.704Z,35.57
2018-05-15T06:56:01.990Z,33.98
2018-05-15T06:57:02.085Z,32.05
2018-05-15T06:58:02.270Z,30.98
2018-05-15T06:59:02.470Z,30.52
2018-05-15T07:00:02.661Z,29.88
2018-05-15T07:01:02.850Z,29.66
2018-05-15T07:02:03.043Z,29.49
2018-05-15T07:03:03.237Z,30.17
2018-05-15T07:04:03.425Z,28.16
2018-05-15T07:05:03.615Z,26.92
2018-05-15T07:06:03.805Z,26.74
2018-05-15T07:07:03.996Z,27.02
2018-05-15T07:08:04.192Z,26.45
2018-05-15T07:09:04.383Z,24.80
2018-05-15T07:10:04.565Z,24.14
2018-05-15T07:11:04.760Z,24.05
2018-05-15T07:12:04.959Z,23.39
2018-05-15T07:13:05.143Z,23.38
2018-05-15T07:14:05.415Z,23.39
2018-05-15T07:15:05.541Z,23.50
2018-05-15T07:16:05.767Z,22.16
2018-05-15T07:17:05.956Z,21.58
2018-05-15T07:18:06.147Z,21.38
2018-05-15T07:19:06.387Z,21.38
2018-05-15T07:20:06.465Z,20.62
2018-05-15T07:21:06.652Z,20.14
2018-05-15T07:22:06.851Z,19.93
2018-05-15T07:23:07.041Z,20.61
2018-05-15T07:24:07.232Z,20.41
2018-05-15T07:25:07.519Z,20.32
2018-05-15T07:26:07.649Z,19.64
2018-05-15T07:27:07.843Z,19.75
2018-05-15T07:28:08.045Z,19.36
2018-05-15T07:29:08.356Z,19.25
2018-05-15T07:30:08.430Z,19.65
2018-05-15T07:31:08.617Z,20.22
2018-05-15T07:32:08.821Z,20.12
2018-05-15T07:33:09.050Z,20.12
2018-05-15T07:34:09.242Z,19.84
2018-05-15T07:35:09.712Z,18.96
2018-05-15T07:36:09.861Z,18.48
2018-05-15T07:37:10.183Z,18.96
2018-05-15T07:38:10.449Z,18.76
2018-05-15T07:39:10.366Z,18.65
2018-05-15T07:40:10.806Z,18.87
2018-05-15T07:41:10.859Z,18.08
2018-05-15T07:42:10.996Z,17.33
2018-05-15T07:43:11.340Z,18.09
2018-05-15T07:44:11.412Z,18.11
2018-05-15T07:45:11.581Z,17.31
2018-05-15T07:46:11.709Z,17.88
2018-05-15T07:47:12.216Z,18.68
2018-05-15T07:48:12.282Z,18.94
2018-05-15T07:49:12.124Z,19.40
2018-05-15T07:50:12.399Z,20.00
2018-05-15T07:51:12.498Z,19.90
2018-05-15T07:52:12.686Z,19.62
2018-05-15T07:53:12.784Z,19.91
2018-05-15T07:54:13.069Z,19.51
2018-05-15T07:55:13.032Z,19.40
2018-05-15T07:56:13.122Z,19.59
2018-05-15T07:57:13.207Z,20.28
2018-05-15T07:58:13.694Z,20.56
2018-05-15T07:59:13.882Z,21.63
2018-05-15T08:00:13.875Z,20.48
2018-05-15T08:01:14.140Z,19.62
2018-05-15T08:02:14.335Z,18.85
2018-05-15T08:03:14.443Z,18.75
2018-05-15T08:04:14.324Z,18.36
2018-05-15T08:05:15.302Z,18.94
2018-05-15T08:06:14.991Z,20.54
2018-05-15T08:07:15.116Z,21.80
2018-05-15T08:08:15.251Z,22.84
2018-05-15T08:09:15.371Z,22.75
2018-05-15T08:10:15.451Z,23.14
2018-05-15T08:11:15.800Z,20.94
2018-05-15T08:12:15.902Z,20.17
2018-05-15T08:13:16.037Z,19.96
2018-05-15T08:14:16.200Z,20.17
2018-05-15T08:15:19.188Z,20.94
2018-05-15T08:16:18.607Z,21.00
2018-05-15T08:17:17.597Z,21.97
2018-05-15T08:18:17.405Z,21.39
2018-05-15T08:19:17.113Z,22.34
2018-05-15T08:20:17.872Z,21.97
2018-05-15T08:21:17.451Z,21.41
2018-05-15T08:22:17.711Z,21.80
2018-05-15T08:23:18.737Z,21.42
2018-05-15T08:24:18.030Z,21.01
2018-05-15T08:25:18.142Z,20.17
2018-05-15T08:26:18.478Z,19.70
2018-05-15T08:27:18.686Z,19.62
2018-05-15T08:28:18.713Z,18.95
2018-05-15T08:29:18.891Z,18.06
2018-05-15T08:30:19.025Z,18.25
2018-05-15T08:31:19.176Z,18.36
2018-05-15T08:32:19.296Z,18.31
2018-05-15T08:33:19.403Z,18.31
2018-05-15T08:34:19.375Z,19.27
2018-05-15T08:35:20.390Z,19.57
2018-05-15T08:36:22.650Z,19.68
2018-05-15T08:37:21.807Z,18.42
2018-05-15T08:38:22.817Z,17.86
2018-05-15T08:39:25.627Z,17.59
2018-05-15T08:40:22.360Z,16.82
2018-05-15T08:41:24.332Z,16.93
2018-05-15T08:42:24.937Z,16.35
2018-05-15T08:43:22.555Z,15.77
2018-05-15T08:44:24.753Z,15.19
2018-05-15T08:45:23.917Z,15.01
2018-05-15T08:46:24.006Z,15.20
2018-05-15T08:47:26.047Z,15.20
2018-05-15T08:48:23.666Z,15.60
2018-05-15T08:49:23.749Z,15.10
2018-05-15T08:50:23.181Z,15.20
2018-05-15T08:51:25.481Z,16.06
2018-05-15T08:52:32.538Z,15.97
2018-05-15T08:53:24.013Z,15.47
2018-05-15T08:54:24.885Z,15.08
2018-05-15T08:55:25.638Z,15.07
2018-05-15T08:56:26.493Z,15.06
2018-05-15T08:57:25.076Z,14.57
2018-05-15T08:58:24.514Z,15.15
2018-05-15T08:59:26.450Z,15.35
2018-05-15T09:00:26.161Z,15.06
2018-05-15T09:01:26.784Z,16.24
2018-05-15T09:02:24.882Z,16.14
2018-05-15T09:03:26.165Z,17.00
2018-05-15T09:04:25.546Z,16.52
2018-05-15T09:05:25.783Z,15.35
2018-05-15T09:06:25.530Z,15.07
2018-05-15T09:07:25.495Z,14.98
2018-05-15T09:08:25.712Z,14.58
2018-05-15T09:09:25.972Z,14.69
2018-05-15T09:10:26.177Z,14.67
2018-05-15T09:11:26.282Z,14.78
2018-05-15T09:12:26.509Z,14.97
2018-05-15T09:13:26.592Z,14.48
2018-05-15T09:14:26.809Z,14.38
2018-05-15T09:15:26.611Z,14.87
2018-05-15T09:16:26.817Z,14.86
2018-05-15T09:17:27.011Z,13.78
2018-05-15T09:18:27.192Z,14.76
2018-05-15T09:19:27.391Z,14.57
2018-05-15T09:20:27.580Z,13.89
2018-05-15T09:21:27.776Z,13.49
2018-05-15T09:22:28.028Z,14.48
2018-05-15T09:23:28.128Z,13.39
2018-05-15T09:24:28.312Z,13.67
2018-05-15T09:25:28.504Z,15.02
2018-05-15T09:26:28.729Z,16.31
2018-05-15T09:27:29.924Z,15.92
2018-05-15T09:28:29.108Z,14.84
2018-05-15T09:29:29.301Z,14.83
2018-05-15T09:30:29.505Z,15.73
2018-05-15T09:31:29.706Z,15.73
2018-05-15T09:32:30.243Z,15.75
2018-05-15T09:33:30.133Z,15.83
2018-05-15T09:34:30.269Z,16.42
2018-05-15T09:35:30.335Z,14.94
2018-05-15T09:36:30.556Z,15.12
2018-05-15T09:37:30.754Z,15.70
2018-05-15T09:38:30.940Z,16.97
2018-05-15T09:39:31.131Z,17.07
2018-05-15T09:40:31.450Z,17.05
2018-05-15T09:41:31.561Z,17.42
2018-05-15T09:42:31.644Z,18.02
2018-05-15T09:43:31.855Z,17.73
2018-05-15T09:44:32.082Z,17.55
2018-05-15T09:45:32.187Z,19.39
2018-05-15T09:46:33.353Z,19.68
2018-05-15T09:47:32.570Z,19.78
2018-05-15T09:48:32.764Z,20.94
2018-05-15T09:49:32.891Z,20.45
2018-05-15T09:50:33.087Z,21.22
2018-05-15T09:51:33.221Z,21.41
2018-05-15T09:52:33.293Z,21.49
2018-05-15T09:53:33.537Z,21.37
2018-05-15T09:54:33.638Z,21.97
2018-05-15T09:55:33.824Z,21.68
2018-05-15T09:56:34.039Z,22.06
2018-05-15T09:57:34.615Z,22.46
2018-05-15T09:58:34.413Z,22.46
2018-05-15T09:59:34.607Z,22.83
2018-05-15T10:00:34.815Z,23.88
2018-05-15T10:01:35.012Z,23.78
2018-05-15T10:02:35.225Z,22.83
2018-05-15T10:03:35.431Z,22.83
2018-05-15T10:04:35.768Z,22.81
2018-05-15T10:05:35.855Z,22.94
2018-05-15T10:06:36.032Z,21.50
2018-05-15T10:07:36.328Z,21.23
2018-05-15T10:08:36.418Z,21.99
2018-05-15T10:09:37.701Z,21.70
2018-05-15T10:10:36.847Z,21.03
2018-05-15T10:11:37.031Z,21.42
2018-05-15T10:12:37.223Z,20.26
2018-05-15T10:13:37.895Z,19.59
2018-05-15T10:14:38.120Z,20.57
2018-05-15T10:15:38.074Z,19.79
2018-05-15T10:16:38.723Z,20.96
2018-05-15T10:17:38.555Z,19.56
2018-05-15T10:18:38.396Z,20.23
2018-05-15T10:19:38.604Z,21.20
2018-05-15T10:20:38.795Z,21.48
2018-05-15T10:21:38.992Z,22.84
2018-05-15T10:22:39.186Z,21.84
2018-05-15T10:23:39.383Z,22.02
2018-05-15T10:24:39.575Z,23.18
2018-05-15T10:25:39.792Z,23.67
2018-05-15T10:26:39.996Z,24.93
2018-05-15T10:27:40.192Z,24.72
2018-05-15T10:28:40.429Z,24.90
2018-05-15T10:29:40.513Z,25.76
2018-05-15T10:30:40.700Z,26.33
2018-05-15T10:31:40.900Z,26.54
2018-05-15T10:32:41.095Z,26.43
2018-05-15T10:33:41.289Z,27.03
2018-05-15T10:34:41.475Z,26.82
2018-05-15T10:35:41.672Z,27.59
2018-05-15T10:36:41.858Z,26.82
2018-05-15T10:37:42.051Z,26.25
2018-05-15T10:38:42.238Z,26.64
2018-05-15T10:39:42.454Z,26.34
2018-05-15T10:40:42.653Z,25.56
2018-05-15T10:41:42.837Z,26.33
2018-05-15T10:42:43.024Z,26.14
2018-05-15T10:43:43.210Z,27.29
2018-05-15T10:44:43.397Z,27.10
2018-05-15T10:45:44.940Z,27.19
2018-05-15T10:46:43.708Z,27.19
2018-05-15T10:47:43.891Z,27.48
2018-05-15T10:48:44.085Z,28.25
2018-05-15T10:49:44.275Z,28.34
2018-05-15T10:50:44.555Z,28.05
2018-05-15T10:51:44.726Z,28.25
2018-05-15T10:52:44.852Z,28.05
2018-05-15T10:53:45.038Z,28.74
2018-05-15T10:54:45.239Z,28.72
2018-05-15T10:55:45.435Z,28.15
2018-05-15T10:56:45.628Z,29.30
2018-05-15T10:57:45.827Z,29.22
2018-05-15T10:58:46.027Z,28.15
2018-05-15T10:59:46.415Z,29.33
2018-05-15T11:00:46.438Z,29.14
2018-05-15T11:01:46.635Z,28.36
2018-05-15T11:02:46.832Z,29.04
2018-05-15T11:03:47.019Z,28.26
2018-05-15T11:04:47.212Z,27.58
2018-05-15T11:05:47.546Z,26.92
2018-05-15T11:06:47.608Z,26.53
2018-05-15T11:07:48.764Z,26.44
2018-05-15T11:08:48.837Z,27.03
2018-05-15T11:09:51.384Z,26.73
2018-05-15T11:10:48.291Z,26.93
2018-05-15T11:11:48.483Z,25.95
2018-05-15T11:12:48.770Z,26.23
2018-05-15T11:13:49.465Z,26.90
2018-05-15T11:14:49.165Z,28.05
2018-05-15T11:15:49.153Z,28.33
2018-05-15T11:16:49.382Z,29.97
2018-05-15T11:17:49.567Z,29.77
2018-05-15T11:18:49.765Z,30.24
2018-05-15T11:19:50.099Z,30.32
2018-05-15T11:20:50.163Z,30.91
2018-05-15T11:21:50.351Z,31.59
2018-05-15T11:22:50.539Z,32.84
2018-05-15T11:23:50.736Z,31.86
2018-05-15T11:24:50.961Z,32.91
2018-05-15T11:25:51.141Z,32.62
2018-05-15T11:26:52.840Z,33.39
2018-05-15T11:27:51.501Z,33.97
2018-05-15T11:28:51.725Z,33.95
2018-05-15T11:29:51.996Z,34.91
2018-05-15T11:30:52.123Z,34.91
2018-05-15T11:31:52.348Z,36.24
2018-05-15T11:32:52.518Z,37.12
2018-05-15T11:33:52.849Z,39.43
2018-05-15T11:34:52.913Z,41.56
2018-05-15T11:35:53.145Z,41.94
2018-05-15T11:36:53.294Z,43.57
2018-05-15T11:37:55.245Z,42.31
2018-05-15T11:38:57.197Z,43.01
2018-05-15T11:39:56.080Z,44.17
2018-05-15T11:40:55.044Z,43.76
2018-05-15T11:41:54.250Z,43.85
2018-05-15T11:42:54.739Z,42.60
2018-05-15T11:43:55.837Z,42.79
2018-05-15T11:44:54.806Z,47.22
2018-05-15T11:45:54.987Z,50.79
2018-05-15T11:46:55.181Z,51.17
2018-05-15T11:47:55.733Z,52.14
2018-05-15T11:48:56.271Z,53.27
2018-05-15T11:49:56.640Z,53.85
2018-05-15T11:50:56.609Z,54.72
2018-05-15T11:51:57.093Z,55.01
2018-05-15T11:52:57.329Z,55.76
2018-05-15T11:53:56.745Z,56.33
2018-05-15T11:54:57.057Z,56.72
2018-05-15T11:55:57.116Z,56.26
2018-05-15T11:56:57.013Z,55.36
2018-05-15T11:57:57.207Z,55.20
2018-05-15T11:58:57.387Z,55.68
2018-05-15T11:59:57.672Z,54.62
2018-05-15T12:00:57.771Z,53.20
2018-05-15T12:01:57.954Z,50.91
2018-05-15T12:02:58.141Z,50.71
2018-05-15T12:03:58.434Z,49.00
2018-05-15T12:04:58.521Z,48.35
2018-05-15T12:05:58.725Z,48.08
2018-05-15T12:06:58.910Z,50.21
2018-05-15T12:07:59.106Z,47.99
2018-05-15T12:08:59.303Z,47.52
2018-05-15T12:09:59.478Z,45.40
2018-05-15T12:11:00.283Z,45.37
2018-05-15T12:11:59.910Z,45.66
2018-05-15T12:13:00.064Z,43.85
2018-05-15T12:14:00.256Z,43.07
2018-05-15T12:15:00.531Z,43.75
2018-05-15T12:16:00.722Z,45.30
2018-05-15T12:17:00.835Z,43.73
2018-05-15T12:18:01.035Z,44.12
2018-05-15T12:19:01.292Z,44.48
2018-05-15T12:20:01.485Z,43.03
2018-05-15T12:21:01.570Z,43.68
2018-05-15T12:22:01.737Z,44.36
2018-05-15T12:23:01.805Z,43.88
2018-05-15T12:24:01.988Z,45.04
2018-05-15T12:25:02.247Z,45.81
2018-05-15T12:26:02.379Z,43.76
2018-05-15T12:27:02.507Z,43.01
2018-05-15T12:28:02.655Z,42.21
2018-05-15T12:29:02.884Z,41.35
2018-05-15T12:30:02.926Z,40.86
2018-05-15T12:31:03.154Z,41.15
2018-05-15T12:32:03.247Z,40.86
2018-05-15T12:33:03.633Z,39.90
2018-05-15T12:34:03.667Z,40.38
2018-05-15T12:35:03.894Z,39.32
2018-05-15T12:36:04.107Z,39.70
2018-05-15T12:37:04.344Z,39.32
2018-05-15T12:38:04.518Z,39.43
2018-05-15T12:39:04.925Z,39.82
2018-05-15T12:40:04.926Z,37.32
2018-05-15T12:41:06.085Z,37.42
2018-05-15T12:42:05.581Z,39.64
2018-05-15T12:43:05.504Z,41.41
2018-05-15T12:44:05.632Z,39.57
2018-05-15T12:45:05.997Z,36.98
2018-05-15T12:46:07.210Z,34.67
2018-05-15T12:47:06.970Z,34.77
2018-05-15T12:48:07.617Z,33.89
2018-05-15T12:49:07.918Z,33.60
2018-05-15T12:50:07.162Z,34.38
2018-05-15T12:51:08.774Z,34.09
2018-05-15T12:52:09.390Z,33.80
2018-05-15T12:53:07.996Z,33.81
2018-05-15T12:54:08.276Z,33.33
2018-05-15T12:55:07.364Z,34.01